Time;durP1;ratioP1;P1;durP2;ratioP2;P2;SDS_P1;SDS_P2;PMS_P1;PMS_P2;Temp;Humidity;BMP_temperature;BMP_pressure;BME280_temperature;BME280_humidity;BME280_pressure;Samples;Min_cycle;Max_cycle;Signal;HPM_P1;HPM_P2
2021/11/08 00:01:44;;;;;;;4.18;2.45;;;17.80;62.50;;;;;;4980989;28;20050;-54
2021/11/08 00:04:09;;;;;;;3.22;1.92;;;17.80;63.00;;;;;;4965291;28;20130;-54
2021/11/08 00:06:36;;;;;;;3.50;2.05;;;17.80;62.40;;;;;;4966616;28;20561;-50
2021/11/08 00:09:02;;;;;;;3.88;1.98;;;17.90;62.40;;;;;;4965851;28;20026;-52
2021/11/08 00:11:27;;;;;;;3.10;1.75;;;17.90;62.40;;;;;;4966087;28;20029;-49
2021/11/08 00:13:53;;;;;;;3.10;1.73;;;17.90;62.30;;;;;;4965425;28;20031;-52
2021/11/08 00:19:51;;;;;;;3.85;1.63;;;17.80;62.30;;;;;;4981748;28;20447;-53
2021/11/08 00:22:05;;;;;;;4.53;1.85;;;17.80;62.30;;;;;;4979545;28;20085;-51
2021/11/08 00:24:32;;;;;;;3.20;2.03;;;17.80;62.30;;;;;;4964149;28;20031;-51
2021/11/08 00:26:59;;;;;;;4.20;1.50;;;17.80;62.20;;;;;;4976555;23;20586;-55
2021/11/08 00:29:25;;;;;;;3.72;1.90;;;17.90;62.30;;;;;;4965851;28;20106;-57
2021/11/08 00:31:51;;;;;;;2.05;1.55;;;17.80;62.20;;;;;;4964757;28;20121;-55
2021/11/08 00:34:16;;;;;;;3.42;1.90;;;17.80;62.20;;;;;;4964735;28;20026;-56
2021/11/08 00:36:42;;;;;;;3.10;1.30;;;17.80;62.20;;;;;;4946433;28;20031;-58
2021/11/08 00:39:09;;;;;;;6.20;2.28;;;17.80;62.20;;;;;;4947646;28;20110;-57
2021/11/08 00:41:35;;;;;;;2.80;1.63;;;17.80;62.10;;;;;;4947821;28;20031;-56
2021/11/08 00:44:00;;;;;;;1.95;1.30;;;17.80;62.10;;;;;;4945080;28;20447;-57
2021/11/08 00:46:26;;;;;;;3.47;1.80;;;17.80;62.10;;;;;;4946371;28;20031;-56
2021/11/08 00:48:52;;;;;;;3.42;1.70;;;17.80;62.10;;;;;;4944165;28;20117;-54
2021/11/08 00:51:18;;;;;;;4.40;1.30;;;17.80;62.10;;;;;;4946166;28;20537;-56
2021/11/08 00:53:44;;;;;;;3.00;1.50;;;17.80;62.10;;;;;;4946273;28;20039;-56
2021/11/08 00:56:15;;;;;;;3.00;1.98;;;17.80;62.10;;;;;;4945125;28;20042;-56
2021/11/08 00:58:43;;;;;;;4.10;1.52;;;17.80;62.10;;;;;;4946167;28;20506;-56
2021/11/08 01:01:09;;;;;;;2.35;1.15;;;17.80;62.10;;;;;;4946432;28;20039;-56
2021/11/08 01:03:38;;;;;;;2.22;1.50;;;17.80;62.10;;;;;;4965389;28;20496;-56
2021/11/08 01:06:04;;;;;;;3.13;1.50;;;17.80;62.00;;;;;;4963160;28;20042;-57
2021/11/08 01:08:30;;;;;;;2.60;1.33;;;17.80;62.00;;;;;;4965544;28;20035;-52
2021/11/08 01:10:55;;;;;;;2.88;1.10;;;17.80;62.00;;;;;;4965591;28;20117;-57
2021/11/08 01:13:21;;;;;;;2.50;1.33;;;17.80;61.90;;;;;;4964848;28;20492;-54
2021/11/08 01:15:46;;;;;;;1.48;0.93;;;17.80;61.90;;;;;;4965071;28;20062;-56
2021/11/08 01:18:12;;;;;;;2.08;1.20;;;17.80;61.90;;;;;;4965514;28;20043;-56
2021/11/08 01:20:44;;;;;;;3.38;1.17;;;17.80;61.80;;;;;;4965521;28;20675;-54
2021/11/08 01:23:12;;;;;;;3.05;1.60;;;17.80;61.80;;;;;;4964946;28;20031;-54
2021/11/08 01:25:38;;;;;;;4.25;1.58;;;17.80;61.80;;;;;;4963891;28;20511;-54
2021/11/08 01:28:05;;;;;;;2.85;1.45;;;17.80;61.70;;;;;;4964696;28;20046;-57
2021/11/08 01:30:30;;;;;;;3.35;1.33;;;17.80;61.70;;;;;;4964042;28;20027;-54
2021/11/08 01:32:59;;;;;;;3.35;1.27;;;17.80;61.60;;;;;;4964773;28;20037;-55
2021/11/08 01:35:31;;;;;;;2.63;1.42;;;17.80;61.60;;;;;;4964464;28;20041;-58
2021/11/08 01:38:42;;;;;;;2.95;1.30;;;17.80;61.60;;;;;;4965145;28;20035;-54
2021/11/08 01:40:46;;;;;;;1.88;1.00;;;17.80;61.60;;;;;;4960231;28;20031;-56
2021/11/08 01:43:12;;;;;;;2.88;1.33;;;17.80;61.50;;;;;;4964826;28;20477;-56
2021/11/08 01:45:37;;;;;;;2.95;1.13;;;17.80;61.50;;;;;;4964280;28;20022;-55
2021/11/08 01:48:03;;;;;;;2.70;1.17;;;17.80;61.50;;;;;;4964816;28;20031;-56
2021/11/08 01:50:29;;;;;;;2.45;1.30;;;17.80;61.50;;;;;;4964586;28;20269;-55
2021/11/08 01:52:56;;;;;;;1.75;0.85;;;17.80;61.40;;;;;;4964437;28;20114;-57
2021/11/08 01:55:22;;;;;;;2.75;1.30;;;17.80;61.50;;;;;;4964770;28;20069;-56
2021/11/08 01:57:47;;;;;;;1.90;1.00;;;17.80;61.40;;;;;;4964644;28;20062;-55
2021/11/08 02:00:14;;;;;;;2.17;1.20;;;17.80;61.40;;;;;;4964303;28;20092;-56
2021/11/08 02:02:40;;;;;;;4.50;1.42;;;17.80;61.40;;;;;;4965027;28;20041;-55
2021/11/08 02:05:05;;;;;;;2.67;1.20;;;17.80;61.30;;;;;;4964741;28;20680;-56
2021/11/08 02:07:31;;;;;;;3.67;1.65;;;17.80;61.30;;;;;;4964267;28;20027;-55
2021/11/08 02:09:57;;;;;;;2.72;1.17;;;17.80;61.30;;;;;;4964429;28;20074;-56
2021/11/08 02:12:23;;;;;;;3.58;2.20;;;17.80;61.30;;;;;;4962799;28;20519;-55
2021/11/08 02:14:48;;;;;;;2.63;1.20;;;17.80;61.30;;;;;;4964228;28;20046;-53
2021/11/08 02:17:14;;;;;;;3.05;1.63;;;17.80;61.30;;;;;;4963607;28;20019;-54
2021/11/08 02:19:40;;;;;;;1.50;1.00;;;17.80;61.30;;;;;;4964383;28;20582;-58
2021/11/08 02:22:06;;;;;;;4.22;1.17;;;17.80;61.30;;;;;;4964589;28;20039;-54
2021/11/08 02:24:34;;;;;;;3.67;1.20;;;17.70;61.50;;;;;;4964144;28;20483;-55
2021/11/08 02:27:00;;;;;;;3.05;1.38;;;17.70;61.80;;;;;;4962308;28;20260;-56
2021/11/08 02:29:25;;;;;;;2.42;1.13;;;17.60;61.80;;;;;;4962769;28;20114;-55
2021/11/08 02:31:52;;;;;;;4.88;1.50;;;17.70;61.60;;;;;;4964230;28;20531;-56
2021/11/08 02:34:17;;;;;;;3.13;1.35;;;17.90;61.30;;;;;;4963436;28;20471;-56
2021/11/08 02:36:43;;;;;;;3.80;1.00;;;18.10;60.80;;;;;;4963538;28;20035;-57
2021/11/08 02:39:17;;;;;;;2.58;1.20;;;18.20;60.40;;;;;;4964612;28;20095;-55
2021/11/08 02:41:43;;;;;;;2.90;1.13;;;18.30;60.10;;;;;;4960699;28;20393;-54
2021/11/08 02:44:13;;;;;;;2.75;1.05;;;18.40;60.00;;;;;;4963632;28;20027;-54
2021/11/08 02:46:41;;;;;;;3.35;1.30;;;18.40;60.00;;;;;;4964207;28;20101;-56
2021/11/08 02:49:09;;;;;;;2.20;1.05;;;18.40;60.00;;;;;;4963160;28;20501;-55
2021/11/08 02:51:35;;;;;;;2.40;1.00;;;18.40;60.00;;;;;;4963937;28;20046;-55
2021/11/08 02:54:12;;;;;;;3.88;1.20;;;18.40;60.00;;;;;;4962155;28;20030;-56
2021/11/08 02:56:37;;;;;;;3.10;1.10;;;18.40;59.80;;;;;;4963347;28;20707;-52
2021/11/08 02:59:04;;;;;;;3.35;0.73;;;18.50;59.70;;;;;;4963572;28;20122;-56
2021/11/08 03:01:30;;;;;;;3.38;1.20;;;18.50;59.60;;;;;;4963878;28;20078;-51
2021/11/08 03:04:00;;;;;;;1.95;1.00;;;18.50;59.50;;;;;;4962934;28;20035;-55
2021/11/08 03:06:34;;;;;;;3.10;1.02;;;18.50;59.50;;;;;;4963765;28;20027;-54
2021/11/08 03:09:07;;;;;;;2.55;0.90;;;18.60;59.60;;;;;;4962392;28;20042;-56
2021/11/08 03:11:32;;;;;;;3.80;1.08;;;18.60;59.60;;;;;;4962635;28;20031;-55
2021/11/08 03:14:03;;;;;;;3.10;1.02;;;18.50;59.60;;;;;;4962908;28;20051;-54
2021/11/08 03:16:39;;;;;;;3.25;1.25;;;18.50;59.50;;;;;;4963120;28;20059;-56
2021/11/08 03:19:15;;;;;;;2.13;1.10;;;18.50;59.50;;;;;;4963269;28;21309;-56
2021/11/08 03:21:41;;;;;;;2.50;1.08;;;18.50;59.60;;;;;;4963603;28;20050;-54
2021/11/08 03:24:08;;;;;;;2.40;1.02;;;18.50;59.60;;;;;;4963970;28;20035;-55
2021/11/08 03:28:59;;;;;;;2.33;1.15;;;18.50;59.50;;;;;;4962849;28;20133;-56
2021/11/08 03:31:26;;;;;;;3.22;1.95;;;18.50;59.40;;;;;;4962792;28;20090;-55
2021/11/08 03:33:52;;;;;;;1.80;1.25;;;18.50;59.30;;;;;;4962820;28;20042;-54
2021/11/08 03:36:18;;;;;;;2.88;1.17;;;18.50;59.30;;;;;;4962297;28;20579;-56
2021/11/08 03:38:43;;;;;;;4.32;1.38;;;18.50;59.20;;;;;;4963261;28;20046;-53
2021/11/08 03:41:09;;;;;;;2.70;1.10;;;18.50;59.10;;;;;;4963324;28;20404;-56
2021/11/08 03:43:34;;;;;;;2.28;1.00;;;18.50;59.10;;;;;;4962316;28;20049;-52
2021/11/08 03:46:00;;;;;;;2.40;0.93;;;18.50;59.10;;;;;;4962957;28;20046;-55
2021/11/08 03:48:26;;;;;;;2.47;1.00;;;18.50;59.20;;;;;;4960922;28;20027;-54
2021/11/08 03:50:51;;;;;;;2.45;0.80;;;18.50;59.10;;;;;;4960577;28;20030;-56
2021/11/08 03:53:17;;;;;;;2.88;0.85;;;18.50;58.90;;;;;;4960057;28;20035;-52
2021/11/08 03:55:44;;;;;;;1.90;0.90;;;18.50;58.90;;;;;;4960793;28;20724;-54
2021/11/08 03:58:09;;;;;;;2.10;0.90;;;18.50;59.00;;;;;;4960998;28;20479;-55
2021/11/08 04:00:35;;;;;;;3.28;1.20;;;18.50;59.00;;;;;;4961091;28;20126;-55
2021/11/08 04:03:01;;;;;;;2.72;1.10;;;18.40;58.90;;;;;;4960541;28;20663;-56
2021/11/08 04:05:27;;;;;;;1.95;0.68;;;18.40;58.90;;;;;;4960039;28;20705;-55
2021/11/08 04:07:53;;;;;;;3.80;1.05;;;18.40;59.00;;;;;;4961472;28;20511;-56
2021/11/08 04:10:20;;;;;;;3.15;1.17;;;18.30;59.00;;;;;;4959816;28;20031;-52
2021/11/08 04:12:47;;;;;;;3.25;0.80;;;18.40;59.10;;;;;;4960970;28;20760;-53
2021/11/08 04:15:14;;;;;;;2.83;0.90;;;18.40;59.10;;;;;;4961427;28;20071;-57
2021/11/08 04:17:46;;;;;;;2.70;1.10;;;18.30;59.10;;;;;;4961548;28;20027;-55
2021/11/08 04:20:13;;;;;;;2.33;0.90;;;18.30;59.20;;;;;;4959466;28;20189;-56
2021/11/08 04:22:39;;;;;;;3.30;1.40;;;18.30;59.20;;;;;;4963784;28;20113;-54
2021/11/08 04:25:06;;;;;;;2.83;1.05;;;18.30;59.20;;;;;;4962115;28;20117;-56
2021/11/08 04:27:36;;;;;;;2.25;1.08;;;18.20;59.10;;;;;;4958348;28;20050;-55
2021/11/08 04:30:03;;;;;;;1.52;1.17;;;18.20;59.20;;;;;;4961829;28;20057;-54
2021/11/08 04:32:32;;;;;;;5.25;1.77;;;18.20;59.30;;;;;;4949566;28;20034;-54
2021/11/08 04:35:06;;;;;;;2.63;0.88;;;18.20;59.20;;;;;;4956864;28;20073;-55
2021/11/08 04:40:17;;;;;;;4.35;1.25;;;18.20;59.30;;;;;;4962729;28;20634;-53
2021/11/08 04:42:55;;;;;;;3.25;0.95;;;18.20;59.20;;;;;;4966654;28;20034;-54
2021/11/08 04:45:34;;;;;;;5.18;1.75;;;18.20;59.30;;;;;;4965464;28;20118;-54
2021/11/08 04:48:52;;;;;;;2.72;0.90;;;18.20;59.30;;;;;;4968482;28;20026;-56
2021/11/08 04:50:54;;;;;;;2.55;1.33;;;18.20;59.30;;;;;;4971795;28;20038;-56
2021/11/08 04:56:17;;;;;;;2.58;0.98;;;18.10;59.40;;;;;;4966752;28;20058;-55
2021/11/08 05:23:47;;;;;;;1.75;0.75;;;18.10;60.00;;;;;;4961751;28;20062;-53
2021/11/08 05:31:36;;;;;;;3.88;0.80;;;18.00;59.90;;;;;;4983771;28;20056;-57
2021/11/08 05:34:02;;;;;;;7.53;1.23;;;18.00;60.00;;;;;;4983452;28;20654;-57
2021/11/08 05:36:27;;;;;;;3.35;0.98;;;18.00;60.00;;;;;;4983877;28;20266;-51
2021/11/08 05:38:53;;;;;;;4.68;1.88;;;18.00;60.10;;;;;;4956628;28;20062;-56
2021/11/08 05:41:19;;;;;;;4.60;1.80;;;18.00;60.20;;;;;;4959167;28;20075;-57
2021/11/08 05:43:44;;;;;;;10.45;1.92;;;18.00;60.30;;;;;;4972563;28;20105;-56
2021/11/08 05:46:10;;;;;;;5.45;1.63;;;17.90;60.50;;;;;;4964145;28;20031;-53
2021/11/08 05:48:37;;;;;;;6.10;1.55;;;17.90;60.80;;;;;;4970222;28;20628;-53
2021/11/08 05:51:02;;;;;;;7.15;1.70;;;17.90;60.90;;;;;;4975430;28;20030;-52
2021/11/08 05:53:28;;;;;;;4.47;1.65;;;17.90;60.90;;;;;;4968421;28;20041;-56
2021/11/08 05:56:02;;;;;;;4.95;1.40;;;17.90;61.00;;;;;;4983394;28;20052;-54
2021/11/08 06:50:03;;;;;;;8.00;2.22;;;18.10;59.60;;;;;;4947358;28;20039;-56
2021/11/08 06:52:30;;;;;;;4.55;1.83;;;18.10;59.70;;;;;;4947836;28;20035;-54
2021/11/08 06:54:56;;;;;;;7.05;1.52;;;18.00;59.50;;;;;;4948250;28;20541;-55
2021/11/08 06:57:24;;;;;;;4.28;2.00;;;18.00;59.60;;;;;;4948746;28;20031;-56
2021/11/08 06:59:50;;;;;;;7.90;3.42;;;18.00;59.60;;;;;;4951147;28;20690;-52
2021/11/08 07:02:16;;;;;;;17.63;8.25;;;18.00;59.80;;;;;;4949016;28;20035;-55
2021/11/08 07:04:42;;;;;;;19.02;8.25;;;18.00;60.50;;;;;;4951836;28;20027;-52
2021/11/08 07:07:09;;;;;;;20.02;7.45;;;18.00;60.70;;;;;;4951420;28;20400;-52
2021/11/08 07:09:35;;;;;;;20.67;6.15;;;18.00;60.60;;;;;;4947452;28;20066;-54
2021/11/08 07:12:00;;;;;;;15.35;6.82;;;18.00;60.50;;;;;;4949691;28;20118;-52
2021/11/08 07:14:26;;;;;;;17.55;6.38;;;18.00;60.40;;;;;;4976269;28;20121;-52
2021/11/08 07:16:52;;;;;;;16.45;5.60;;;18.00;60.30;;;;;;4969655;28;20129;-55
2021/11/08 07:19:17;;;;;;;16.10;5.45;;;18.00;60.20;;;;;;4967756;28;20050;-55
2021/11/08 07:21:43;;;;;;;11.25;4.95;;;18.00;59.90;;;;;;4965074;28;20045;-52
2021/11/08 07:24:08;;;;;;;15.02;5.82;;;18.00;59.80;;;;;;4966317;28;20038;-52
2021/11/08 07:26:34;;;;;;;13.63;4.93;;;18.00;59.70;;;;;;4980172;28;20085;-52
2021/11/08 07:29:00;;;;;;;14.32;5.43;;;18.10;59.70;;;;;;4968204;28;20062;-56
2021/11/08 07:31:25;;;;;;;13.00;5.38;;;18.10;59.50;;;;;;4980074;28;20037;-55
2021/11/08 07:33:51;;;;;;;14.18;6.30;;;18.10;59.40;;;;;;4968305;28;20050;-56
2021/11/08 07:36:16;;;;;;;8.75;4.53;;;18.10;59.30;;;;;;4968257;28;20137;-52
2021/11/08 07:38:42;;;;;;;10.90;5.43;;;18.10;59.10;;;;;;4963419;28;20077;-53
2021/11/08 07:41:09;;;;;;;11.13;4.93;;;18.10;59.10;;;;;;4979332;28;20194;-54
2021/11/08 07:43:35;;;;;;;12.45;4.90;;;18.20;59.10;;;;;;4958868;28;20532;-52
2021/11/08 07:46:01;;;;;;;12.38;4.90;;;18.20;59.20;;;;;;4996445;28;20046;-54
2021/11/08 07:48:26;;;;;;;11.38;5.00;;;18.10;59.10;;;;;;4966744;28;20606;-53
2021/11/08 07:50:52;;;;;;;10.68;4.05;;;18.20;59.10;;;;;;4966345;28;20022;-53
2021/11/08 07:53:17;;;;;;;8.32;3.75;;;18.20;58.40;;;;;;4968071;28;20042;-52
2021/11/08 07:55:43;;;;;;;11.13;3.85;;;18.20;58.00;;;;;;4968665;28;20031;-54
2021/11/08 07:58:09;;;;;;;9.02;3.15;;;18.20;57.80;;;;;;4960110;28;20188;-53
2021/11/08 08:00:35;;;;;;;11.13;3.20;;;18.20;57.70;;;;;;4964020;28;20109;-51
2021/11/08 08:03:02;;;;;;;7.35;3.30;;;18.20;57.20;;;;;;4973634;28;20039;-54
2021/11/08 08:05:28;;;;;;;9.32;2.67;;;18.20;56.50;;;;;;4959904;28;20041;-52
2021/11/08 08:07:53;;;;;;;9.18;2.63;;;18.20;55.90;;;;;;4980215;28;20106;-52
2021/11/08 08:10:19;;;;;;;8.18;2.30;;;18.20;56.20;;;;;;4964737;28;20034;-55
2021/11/08 08:12:44;;;;;;;9.88;2.90;;;18.20;55.70;;;;;;4958902;28;20077;-52
2021/11/08 08:15:10;;;;;;;12.10;2.58;;;18.20;55.90;;;;;;4966983;28;20521;-54
2021/11/08 08:17:36;;;;;;;7.05;1.90;;;18.20;55.90;;;;;;4968051;28;20031;-54
2021/11/08 08:20:08;;;;;;;8.27;2.20;;;18.20;55.70;;;;;;4968530;28;20026;-52
2021/11/08 08:22:34;;;;;;;6.07;2.45;;;18.20;56.00;;;;;;4968242;28;20030;-55
2021/11/08 08:24:59;;;;;;;10.07;2.45;;;18.10;56.10;;;;;;4973490;28;20277;-54
2021/11/08 08:27:25;;;;;;;6.78;2.33;;;18.10;56.50;;;;;;4971890;28;20675;-54
2021/11/08 08:29:51;;;;;;;6.53;2.10;;;18.10;56.70;;;;;;4980454;28;20038;-54
2021/11/08 08:32:18;;;;;;;7.47;2.20;;;18.10;56.80;;;;;;4963645;28;20031;-51
2021/11/08 08:34:44;;;;;;;8.38;2.30;;;18.00;56.90;;;;;;4970170;28;20125;-51
2021/11/08 08:37:09;;;;;;;8.50;1.70;;;18.10;57.00;;;;;;4965905;28;20110;-51
2021/11/08 08:39:35;;;;;;;9.02;2.10;;;18.00;57.20;;;;;;4975166;28;20023;-51
2021/11/08 08:42:00;;;;;;;6.55;2.42;;;18.00;57.20;;;;;;4965446;28;20037;-51
2021/11/08 08:44:26;;;;;;;8.93;2.63;;;18.00;57.40;;;;;;4974367;28;20050;-52
2021/11/08 08:46:52;;;;;;;7.47;2.35;;;18.00;57.40;;;;;;4972755;28;20030;-56
2021/11/08 08:49:17;;;;;;;5.47;1.75;;;18.00;57.60;;;;;;4967436;28;20038;-54
2021/11/08 08:51:43;;;;;;;6.25;2.10;;;18.00;57.50;;;;;;4975421;28;20057;-55
2021/11/08 08:54:08;;;;;;;7.55;2.22;;;18.00;57.60;;;;;;4967872;28;20045;-56
2021/11/08 08:56:34;;;;;;;9.27;2.25;;;18.00;57.70;;;;;;4966313;28;20042;-53
2021/11/08 08:58:59;;;;;;;4.22;1.58;;;18.00;57.70;;;;;;4971853;28;20117;-57
2021/11/08 09:01:26;;;;;;;5.15;2.00;;;18.00;57.70;;;;;;4976274;28;20027;-55
2021/11/08 09:03:51;;;;;;;4.00;1.80;;;18.00;57.70;;;;;;4963712;28;20031;-53
2021/11/08 09:06:17;;;;;;;6.65;1.98;;;18.10;57.80;;;;;;4962305;28;20774;-52
2021/11/08 09:08:42;;;;;;;7.65;1.73;;;18.10;57.70;;;;;;4966522;28;20575;-56
2021/11/08 09:11:08;;;;;;;9.70;2.00;;;18.10;57.70;;;;;;4982520;28;20104;-56
2021/11/08 09:13:34;;;;;;;4.88;1.83;;;18.10;57.80;;;;;;4962345;28;20065;-52
2021/11/08 09:16:00;;;;;;;9.00;1.75;;;18.10;57.70;;;;;;4983364;28;20037;-55
2021/11/08 09:18:25;;;;;;;4.80;1.65;;;18.10;57.60;;;;;;4967064;28;20105;-55
2021/11/08 09:20:51;;;;;;;7.15;1.98;;;18.10;57.70;;;;;;4968161;28;20035;-55
2021/11/08 09:23:16;;;;;;;5.60;1.83;;;18.20;57.70;;;;;;4981052;28;20073;-52
2021/11/08 09:25:42;;;;;;;5.18;1.80;;;18.20;57.70;;;;;;4966635;28;20754;-53
2021/11/08 09:28:07;;;;;;;2.45;1.40;;;18.20;57.70;;;;;;4971489;28;20093;-53
2021/11/08 09:30:40;;;;;;;5.35;2.00;;;18.20;57.70;;;;;;4968316;28;20045;-55
2021/11/08 09:33:06;;;;;;;4.22;1.58;;;18.20;57.80;;;;;;4962482;28;20038;-52
2021/11/08 09:35:36;;;;;;;5.53;2.28;;;18.20;57.80;;;;;;4972124;28;20509;-52
2021/11/08 09:38:02;;;;;;;3.85;1.10;;;18.20;57.80;;;;;;4972346;28;20027;-52
2021/11/08 09:40:28;;;;;;;6.07;1.63;;;18.30;57.70;;;;;;4942505;28;20050;-52
2021/11/08 09:42:54;;;;;;;3.20;1.20;;;18.20;57.70;;;;;;4957727;28;20668;-53
2021/11/08 09:45:21;;;;;;;3.83;1.58;;;18.30;57.80;;;;;;4949593;28;20131;-52
2021/11/08 09:47:46;;;;;;;3.85;1.63;;;18.30;57.80;;;;;;4954975;28;20142;-52
2021/11/08 09:50:14;;;;;;;5.40;1.70;;;18.30;57.80;;;;;;4957334;28;20521;-52
2021/11/08 09:52:41;;;;;;;5.95;1.67;;;18.30;57.80;;;;;;4959675;28;20089;-55
2021/11/08 09:55:09;;;;;;;4.05;1.33;;;18.30;57.80;;;;;;4947680;28;20077;-53
2021/11/08 09:57:35;;;;;;;3.15;1.30;;;18.30;57.90;;;;;;4954749;28;20031;-53
2021/11/08 10:00:03;;;;;;;4.38;1.42;;;18.30;57.80;;;;;;4963858;28;20050;-53
2021/11/08 10:02:29;;;;;;;4.55;1.90;;;18.30;57.90;;;;;;4945576;28;20028;-55
2021/11/08 10:04:54;;;;;;;3.80;1.95;;;18.30;57.90;;;;;;4950427;28;20024;-53
2021/11/08 10:07:20;;;;;;;3.97;1.63;;;18.30;57.90;;;;;;4948178;28;20024;-54
2021/11/08 10:09:45;;;;;;;2.83;1.17;;;18.30;57.90;;;;;;4963059;28;20046;-56
2021/11/08 10:12:12;;;;;;;2.88;1.30;;;18.30;58.00;;;;;;4958121;28;20030;-55
2021/11/08 10:14:39;;;;;;;3.80;1.73;;;18.30;58.00;;;;;;4961907;28;20554;-55
2021/11/08 10:17:04;;;;;;;4.32;1.38;;;18.30;57.90;;;;;;4946478;28;20039;-53
2021/11/08 10:19:33;;;;;;;2.30;1.33;;;18.30;58.00;;;;;;4948441;28;20027;-54
2021/11/08 10:21:59;;;;;;;4.05;1.40;;;18.30;58.00;;;;;;4965033;28;20468;-53
2021/11/08 10:24:30;;;;;;;4.45;1.48;;;18.20;57.90;;;;;;4968953;28;20023;-56
2021/11/08 10:26:57;;;;;;;3.22;1.38;;;18.20;58.00;;;;;;4950878;28;20023;-55
2021/11/08 10:29:24;;;;;;;4.53;1.65;;;18.20;58.00;;;;;;4971861;28;20150;-54
2021/11/08 10:31:54;;;;;;;2.13;1.10;;;18.20;58.10;;;;;;4970264;28;20035;-53
2021/11/08 10:34:20;;;;;;;3.72;1.38;;;18.20;58.10;;;;;;4946767;28;20043;-52
2021/11/08 10:36:46;;;;;;;3.90;1.38;;;18.20;58.10;;;;;;4951517;28;20114;-53
2021/11/08 10:39:12;;;;;;;4.57;1.40;;;18.20;58.10;;;;;;4942913;28;20039;-53
2021/11/08 10:41:40;;;;;;;4.30;1.60;;;18.20;58.10;;;;;;4950294;28;20516;-54
2021/11/08 10:44:17;;;;;;;4.05;1.40;;;18.20;58.20;;;;;;4941123;28;20031;-55
2021/11/08 10:46:45;;;;;;;3.95;1.40;;;18.20;58.20;;;;;;4953493;28;20027;-52
2021/11/08 10:49:18;;;;;;;2.95;1.25;;;18.10;58.20;;;;;;4941593;28;20388;-53
2021/11/08 10:51:46;;;;;;;3.42;1.40;;;18.20;58.30;;;;;;4951441;28;20039;-55
2021/11/08 10:54:19;;;;;;;2.88;1.27;;;18.10;58.30;;;;;;4955261;28;20524;-54
2021/11/08 10:56:47;;;;;;;2.95;1.25;;;18.10;58.30;;;;;;4952887;28;20047;-55
2021/11/08 10:59:15;;;;;;;3.15;1.35;;;18.10;58.40;;;;;;4952607;28;20439;-53
2021/11/08 11:01:47;;;;;;;1.88;0.93;;;18.10;58.40;;;;;;4953509;28;20699;-52
2021/11/08 11:04:14;;;;;;;3.53;1.45;;;18.10;58.50;;;;;;4959935;28;20034;-55
2021/11/08 11:06:45;;;;;;;4.38;1.27;;;18.10;58.40;;;;;;4951498;28;20038;-56
2021/11/08 11:09:30;;;;;;;2.22;1.00;;;18.10;58.50;;;;;;4942077;28;20035;-53
2021/11/08 11:12:09;;;;;;;2.75;1.20;;;18.10;58.40;;;;;;4950419;28;20110;-52
2021/11/08 11:14:39;;;;;;;2.47;0.95;;;18.10;58.40;;;;;;4956852;28;20030;-52
2021/11/08 11:17:09;;;;;;;2.63;1.17;;;18.10;58.50;;;;;;4951909;28;20821;-52
2021/11/08 11:19:36;;;;;;;3.20;0.90;;;18.10;58.50;;;;;;4948361;28;20123;-52
2021/11/08 11:22:04;;;;;;;2.53;1.13;;;18.00;58.60;;;;;;4961132;28;20038;-52
2021/11/08 11:24:42;;;;;;;3.35;1.40;;;18.10;58.60;;;;;;4964561;28;20041;-55
2021/11/08 11:27:11;;;;;;;1.77;1.00;;;18.10;58.70;;;;;;4944553;28;20031;-55
2021/11/08 11:29:37;;;;;;;3.47;1.25;;;18.10;58.70;;;;;;4971102;28;20098;-52
2021/11/08 11:32:03;;;;;;;2.08;1.10;;;18.10;58.70;;;;;;4979822;28;20440;-52
2021/11/08 11:34:28;;;;;;;3.83;1.40;;;18.10;58.70;;;;;;4953104;28;20564;-56
2021/11/08 11:36:54;;;;;;;3.60;1.45;;;18.10;58.70;;;;;;4948232;28;20580;-56
2021/11/08 11:39:20;;;;;;;4.60;1.70;;;18.10;58.70;;;;;;4961973;28;20197;-52
2021/11/08 11:41:47;;;;;;;2.75;1.17;;;18.00;58.60;;;;;;4950696;28;20385;-54
2021/11/08 11:44:15;;;;;;;2.50;1.00;;;18.00;58.70;;;;;;4956388;28;20128;-54
2021/11/08 11:46:44;;;;;;;2.22;1.30;;;18.00;58.80;;;;;;4951143;28;20039;-53
2021/11/08 11:49:10;;;;;;;1.95;1.00;;;18.00;58.70;;;;;;4950510;28;20038;-55
2021/11/08 11:51:38;;;;;;;2.05;1.00;;;18.00;58.70;;;;;;4947263;28;20031;-55
2021/11/08 11:54:04;;;;;;;3.03;1.45;;;18.00;58.70;;;;;;4961751;28;20031;-58
2021/11/08 11:56:30;;;;;;;2.53;1.13;;;18.00;58.70;;;;;;4955976;28;20035;-53
2021/11/08 11:58:56;;;;;;;2.35;1.10;;;18.00;58.70;;;;;;4956271;28;20104;-56
2021/11/08 12:01:23;;;;;;;2.10;1.10;;;18.00;58.80;;;;;;4945680;28;20030;-55
2021/11/08 12:03:49;;;;;;;2.30;1.20;;;18.00;58.90;;;;;;4960551;28;20101;-53
2021/11/08 12:06:16;;;;;;;5.13;1.55;;;18.00;58.90;;;;;;4953771;28;20505;-56
2021/11/08 12:08:42;;;;;;;2.38;1.00;;;18.00;58.90;;;;;;4947489;28;20620;-56
2021/11/08 12:11:08;;;;;;;3.20;1.40;;;18.00;58.90;;;;;;4937797;28;20046;-55
2021/11/08 12:13:39;;;;;;;4.38;1.08;;;18.00;59.00;;;;;;4958571;28;20034;-54
2021/11/08 12:16:16;;;;;;;1.88;0.90;;;18.00;59.00;;;;;;4956653;28;20029;-56
2021/11/08 12:18:42;;;;;;;2.20;1.00;;;18.00;59.00;;;;;;4985487;28;20034;-55
2021/11/08 12:21:18;;;;;;;2.72;1.25;;;17.90;59.00;;;;;;4956309;28;20030;-54
2021/11/08 12:23:43;;;;;;;2.03;1.15;;;18.00;59.10;;;;;;4970039;28;20543;-55
2021/11/08 12:26:16;;;;;;;3.75;1.02;;;17.90;59.00;;;;;;4944274;28;20037;-53
2021/11/08 12:28:42;;;;;;;2.42;1.10;;;18.00;59.70;;;;;;4961929;28;20377;-55
2021/11/08 12:31:08;;;;;;;3.38;1.35;;;17.90;59.00;;;;;;4954593;28;20142;-54
2021/11/08 12:33:35;;;;;;;2.17;0.90;;;17.90;59.10;;;;;;4963974;23;20043;-57
2021/11/08 12:36:07;;;;;;;3.50;1.23;;;17.90;59.10;;;;;;4932690;28;20039;-53
2021/11/08 12:38:34;;;;;;;3.22;1.33;;;17.90;59.10;;;;;;4924672;28;20032;-54
2021/11/08 12:41:08;;;;;;;2.45;1.20;;;17.90;59.10;;;;;;4924511;28;20035;-50
2021/11/08 12:43:34;;;;;;;2.92;0.90;;;17.90;59.10;;;;;;4923440;28;20436;-54
2021/11/08 12:46:11;;;;;;;2.45;1.40;;;17.90;59.10;;;;;;4938908;28;20039;-56
2021/11/08 12:48:37;;;;;;;2.15;0.80;;;17.90;59.10;;;;;;4921988;28;20949;-53
2021/11/08 12:51:03;;;;;;;2.00;1.13;;;17.90;59.10;;;;;;4924516;28;20036;-57
2021/11/08 12:53:37;;;;;;;2.65;0.90;;;17.90;59.00;;;;;;4923518;28;21208;-53
2021/11/08 12:56:08;;;;;;;1.42;0.80;;;17.90;59.00;;;;;;4906440;29;20502;-56
2021/11/08 12:58:42;;;;;;;3.55;1.25;;;17.90;59.00;;;;;;4920009;29;20509;-54
2021/11/08 13:01:09;;;;;;;2.13;1.17;;;18.00;59.00;;;;;;4919444;28;20035;-58
2021/11/08 13:03:37;;;;;;;2.53;1.02;;;18.00;59.00;;;;;;4937205;28;20043;-57
2021/11/08 13:06:04;;;;;;;2.33;1.00;;;18.00;58.90;;;;;;4922664;28;20123;-55
2021/11/08 13:08:30;;;;;;;3.85;0.90;;;18.00;58.80;;;;;;4921812;29;20032;-57
2021/11/08 13:11:09;;;;;;;3.42;1.20;;;18.00;58.70;;;;;;4923116;29;20038;-56
2021/11/08 13:13:39;;;;;;;2.28;0.90;;;18.00;58.70;;;;;;4923745;28;20148;-55
2021/11/08 13:16:13;;;;;;;2.00;1.13;;;18.00;58.70;;;;;;4923675;29;20617;-56
2021/11/08 13:18:43;;;;;;;3.00;0.82;;;18.10;58.70;;;;;;4922411;28;20039;-56
2021/11/08 13:21:09;;;;;;;2.70;1.15;;;18.10;58.70;;;;;;4929949;28;20028;-52
2021/11/08 13:23:38;;;;;;;2.13;1.05;;;18.10;58.70;;;;;;4924574;28;20541;-55
2021/11/08 13:26:04;;;;;;;2.92;1.20;;;18.10;58.60;;;;;;4922524;28;20042;-52
2021/11/08 13:28:32;;;;;;;2.15;1.15;;;18.10;58.50;;;;;;4925130;28;20036;-54
2021/11/08 13:31:06;;;;;;;1.63;0.85;;;18.10;58.50;;;;;;4924389;28;20335;-56
2021/11/08 13:33:35;;;;;;;2.17;0.93;;;18.10;59.10;;;;;;4921868;29;20794;-51
2021/11/08 13:36:00;;;;;;;1.95;0.70;;;18.10;58.50;;;;;;4923701;28;20039;-53
2021/11/08 13:38:32;;;;;;;2.05;1.27;;;18.10;58.50;;;;;;4923499;28;20062;-54
2021/11/08 13:41:06;;;;;;;2.63;0.90;;;18.10;58.50;;;;;;4923987;29;20059;-55
2021/11/08 13:43:42;;;;;;;2.53;0.90;;;18.10;58.50;;;;;;4922970;28;20043;-55
2021/11/08 13:46:30;;;;;;;;;;;18.10;58.40;;;;;;4915264;28;20032;-50
2021/11/08 13:49:15;;;;;;;1.20;0.90;;;18.10;58.40;;;;;;4920642;29;20311;-56
2021/11/08 13:51:47;;;;;;;3.13;1.48;;;18.10;58.40;;;;;;4923002;28;20028;-55
2021/11/08 13:54:19;;;;;;;1.40;0.90;;;18.10;58.40;;;;;;4916816;28;20055;-57
2021/11/08 13:56:53;;;;;;;1.08;0.70;;;18.10;58.40;;;;;;4922863;29;20524;-55
2021/11/08 13:59:38;;;;;;;1.95;0.90;;;18.10;58.40;;;;;;4917582;28;20110;-60
2021/11/08 14:02:09;;;;;;;2.17;1.25;;;18.10;58.40;;;;;;4921277;28;20036;-56
2021/11/08 14:04:43;;;;;;;2.78;1.10;;;18.10;58.30;;;;;;4923135;28;20127;-53
2021/11/08 14:07:09;;;;;;;2.17;1.02;;;18.10;58.30;;;;;;4922832;28;20038;-53
2021/11/08 14:09:36;;;;;;;1.17;0.90;;;18.10;58.30;;;;;;4921405;29;20028;-54
2021/11/08 14:12:06;;;;;;;2.75;0.98;;;18.10;58.30;;;;;;4923300;28;20028;-55
2021/11/08 14:14:37;;;;;;;2.45;0.98;;;18.20;58.30;;;;;;4953355;28;20036;-55
2021/11/08 14:17:18;;;;;;;2.50;1.20;;;18.10;58.20;;;;;;4951168;28;20117;-63
2021/11/08 14:19:45;;;;;;;2.35;0.82;;;18.20;58.30;;;;;;4957197;28;20045;-52
2021/11/08 14:22:11;;;;;;;2.17;0.80;;;18.20;58.20;;;;;;4958317;28;20027;-55